sensor_id;sensor_type;location;lat;lon;timestamp;P1;durP1;ratioP1;P2;durP2;ratioP2
25946;SDS011;13745;51.470;9.894;2023-08-20T00:00:22;7.18;;;5.55;;
25946;SDS011;13745;51.470;9.894;2023-08-20T00:03:10;6.88;;;5.85;;
25946;SDS011;13745;51.470;9.894;2023-08-20T00:05:56;8.40;;;6.68;;
25946;SDS011;13745;51.470;9.894;2023-08-20T00:08:42;9.90;;;6.25;;
25946;SDS011;13745;51.470;9.894;2023-08-20T00:11:28;8.18;;;6.53;;
25946;SDS011;13745;51.470;9.894;2023-08-20T00:14:14;9.43;;;5.47;;
25946;SDS011;13745;51.470;9.894;2023-08-20T00:17:00;6.30;;;5.38;;
25946;SDS011;13745;51.470;9.894;2023-08-20T00:19:47;10.32;;;5.90;;
25946;SDS011;13745;51.470;9.894;2023-08-20T00:22:33;6.25;;;5.47;;
25946;SDS011;13745;51.470;9.894;2023-08-20T00:25:20;10.23;;;6.20;;
25946;SDS011;13745;51.470;9.894;2023-08-20T00:28:06;10.25;;;6.10;;
25946;SDS011;13745;51.470;9.894;2023-08-20T00:30:51;8.00;;;6.53;;
25946;SDS011;13745;51.470;9.894;2023-08-20T00:33:36;10.05;;;6.80;;
25946;SDS011;13745;51.470;9.894;2023-08-20T00:36:22;6.68;;;6.07;;
25946;SDS011;13745;51.470;9.894;2023-08-20T00:39:07;10.65;;;7.28;;
25946;SDS011;13745;51.470;9.894;2023-08-20T00:41:53;8.10;;;6.88;;
25946;SDS011;13745;51.470;9.894;2023-08-20T00:44:38;16.10;;;7.57;;
25946;SDS011;13745;51.470;9.894;2023-08-20T00:47:25;10.95;;;7.35;;
25946;SDS011;13745;51.470;9.894;2023-08-20T00:50:12;8.77;;;7.65;;
25946;SDS011;13745;51.470;9.894;2023-08-20T00:52:58;10.13;;;6.82;;
25946;SDS011;13745;51.470;9.894;2023-08-20T00:55:43;8.57;;;6.50;;
25946;SDS011;13745;51.470;9.894;2023-08-20T00:58:30;9.82;;;7.07;;
25946;SDS011;13745;51.470;9.894;2023-08-20T01:01:15;9.65;;;6.65;;
25946;SDS011;13745;51.470;9.894;2023-08-20T01:04:01;11.70;;;8.23;;
25946;SDS011;13745;51.470;9.894;2023-08-20T01:06:50;9.27;;;7.95;;
25946;SDS011;13745;51.470;9.894;2023-08-20T01:09:54;12.30;;;8.57;;
25946;SDS011;13745;51.470;9.894;2023-08-20T01:12:48;10.38;;;7.28;;
25946;SDS011;13745;51.470;9.894;2023-08-20T01:15:36;8.55;;;6.72;;
25946;SDS011;13745;51.470;9.894;2023-08-20T01:18:22;10.60;;;7.07;;
25946;SDS011;13745;51.470;9.894;2023-08-20T01:21:11;10.18;;;7.05;;
25946;SDS011;13745;51.470;9.894;2023-08-20T01:24:10;9.43;;;6.47;;
25946;SDS011;13745;51.470;9.894;2023-08-20T01:27:10;10.10;;;6.32;;
25946;SDS011;13745;51.470;9.894;2023-08-20T01:30:13;13.57;;;7.32;;
25946;SDS011;13745;51.470;9.894;2023-08-20T01:32:59;8.88;;;7.25;;
25946;SDS011;13745;51.470;9.894;2023-08-20T01:35:47;7.60;;;6.80;;
25946;SDS011;13745;51.470;9.894;2023-08-20T01:38:32;10.05;;;7.30;;
25946;SDS011;13745;51.470;9.894;2023-08-20T01:41:21;9.95;;;6.90;;
25946;SDS011;13745;51.470;9.894;2023-08-20T01:44:06;8.68;;;6.80;;
25946;SDS011;13745;51.470;9.894;2023-08-20T01:46:53;10.82;;;7.40;;
25946;SDS011;13745;51.470;9.894;2023-08-20T01:49:39;8.55;;;7.60;;
25946;SDS011;13745;51.470;9.894;2023-08-20T01:52:23;7.07;;;6.28;;
25946;SDS011;13745;51.470;9.894;2023-08-20T01:55:09;9.40;;;7.65;;
25946;SDS011;13745;51.470;9.894;2023-08-20T01:57:54;9.90;;;8.00;;
25946;SDS011;13745;51.470;9.894;2023-08-20T02:00:39;12.57;;;8.23;;
25946;SDS011;13745;51.470;9.894;2023-08-20T02:03:26;9.70;;;8.15;;
25946;SDS011;13745;51.470;9.894;2023-08-20T02:06:11;13.43;;;8.30;;
25946;SDS011;13745;51.470;9.894;2023-08-20T02:08:56;12.43;;;8.32;;
25946;SDS011;13745;51.470;9.894;2023-08-20T02:11:41;10.48;;;9.02;;
25946;SDS011;13745;51.470;9.894;2023-08-20T02:14:26;17.20;;;10.48;;
25946;SDS011;13745;51.470;9.894;2023-08-20T02:17:13;16.05;;;10.57;;
25946;SDS011;13745;51.470;9.894;2023-08-20T02:19:59;13.90;;;10.10;;
25946;SDS011;13745;51.470;9.894;2023-08-20T02:22:45;13.93;;;8.55;;
25946;SDS011;13745;51.470;9.894;2023-08-20T02:25:30;11.07;;;9.25;;
25946;SDS011;13745;51.470;9.894;2023-08-20T02:28:15;12.00;;;8.65;;
25946;SDS011;13745;51.470;9.894;2023-08-20T02:31:03;9.75;;;8.75;;
25946;SDS011;13745;51.470;9.894;2023-08-20T02:33:48;11.05;;;8.85;;
25946;SDS011;13745;51.470;9.894;2023-08-20T02:36:35;10.60;;;8.95;;
25946;SDS011;13745;51.470;9.894;2023-08-20T02:39:20;12.68;;;9.68;;
25946;SDS011;13745;51.470;9.894;2023-08-20T02:42:07;11.80;;;9.77;;
25946;SDS011;13745;51.470;9.894;2023-08-20T02:44:52;12.48;;;9.57;;
25946;SDS011;13745;51.470;9.894;2023-08-20T02:47:37;13.85;;;9.50;;
25946;SDS011;13745;51.470;9.894;2023-08-20T02:50:23;15.75;;;9.98;;
25946;SDS011;13745;51.470;9.894;2023-08-20T02:53:09;12.23;;;9.52;;
25946;SDS011;13745;51.470;9.894;2023-08-20T02:55:54;9.75;;;8.70;;
25946;SDS011;13745;51.470;9.894;2023-08-20T02:58:40;14.90;;;8.57;;
25946;SDS011;13745;51.470;9.894;2023-08-20T03:01:25;11.20;;;9.85;;
25946;SDS011;13745;51.470;9.894;2023-08-20T03:04:13;12.95;;;10.38;;
25946;SDS011;13745;51.470;9.894;2023-08-20T03:06:58;13.88;;;12.30;;
25946;SDS011;13745;51.470;9.894;2023-08-20T03:09:44;16.00;;;12.00;;
25946;SDS011;13745;51.470;9.894;2023-08-20T03:12:29;17.67;;;11.27;;
25946;SDS011;13745;51.470;9.894;2023-08-20T03:15:14;15.27;;;11.50;;
25946;SDS011;13745;51.470;9.894;2023-08-20T03:18:00;14.98;;;12.30;;
25946;SDS011;13745;51.470;9.894;2023-08-20T03:20:45;26.55;;;13.95;;
25946;SDS011;13745;51.470;9.894;2023-08-20T03:23:30;18.88;;;11.95;;
25946;SDS011;13745;51.470;9.894;2023-08-20T03:26:16;17.50;;;12.95;;
25946;SDS011;13745;51.470;9.894;2023-08-20T03:29:02;16.92;;;12.25;;
25946;SDS011;13745;51.470;9.894;2023-08-20T03:31:48;17.30;;;10.93;;
25946;SDS011;13745;51.470;9.894;2023-08-20T03:34:33;12.95;;;11.20;;
25946;SDS011;13745;51.470;9.894;2023-08-20T03:37:18;13.30;;;11.30;;
25946;SDS011;13745;51.470;9.894;2023-08-20T03:40:04;16.75;;;11.50;;
25946;SDS011;13745;51.470;9.894;2023-08-20T03:42:51;16.65;;;12.50;;
25946;SDS011;13745;51.470;9.894;2023-08-20T03:45:36;14.13;;;10.50;;
25946;SDS011;13745;51.470;9.894;2023-08-20T03:48:21;12.30;;;10.55;;
25946;SDS011;13745;51.470;9.894;2023-08-20T03:51:08;14.52;;;11.25;;
25946;SDS011;13745;51.470;9.894;2023-08-20T03:53:53;14.82;;;11.60;;
25946;SDS011;13745;51.470;9.894;2023-08-20T03:56:40;14.10;;;11.38;;
25946;SDS011;13745;51.470;9.894;2023-08-20T03:59:26;15.25;;;13.07;;
25946;SDS011;13745;51.470;9.894;2023-08-20T04:02:11;22.10;;;13.90;;
25946;SDS011;13745;51.470;9.894;2023-08-20T04:04:57;17.50;;;14.30;;
25946;SDS011;13745;51.470;9.894;2023-08-20T04:07:42;21.52;;;15.63;;
25946;SDS011;13745;51.470;9.894;2023-08-20T04:10:27;20.52;;;15.48;;
25946;SDS011;13745;51.470;9.894;2023-08-20T04:13:13;22.60;;;15.48;;
25946;SDS011;13745;51.470;9.894;2023-08-20T04:16:01;20.50;;;16.95;;
25946;SDS011;13745;51.470;9.894;2023-08-20T04:18:46;25.13;;;15.55;;
25946;SDS011;13745;51.470;9.894;2023-08-20T04:21:32;23.10;;;17.05;;
25946;SDS011;13745;51.470;9.894;2023-08-20T04:24:17;20.63;;;16.25;;
25946;SDS011;13745;51.470;9.894;2023-08-20T04:27:02;18.30;;;15.18;;
25946;SDS011;13745;51.470;9.894;2023-08-20T04:29:48;19.42;;;15.63;;
25946;SDS011;13745;51.470;9.894;2023-08-20T04:32:34;18.00;;;14.75;;
25946;SDS011;13745;51.470;9.894;2023-08-20T04:35:19;21.52;;;15.00;;
25946;SDS011;13745;51.470;9.894;2023-08-20T04:38:06;21.42;;;15.63;;
25946;SDS011;13745;51.470;9.894;2023-08-20T04:40:51;19.95;;;15.52;;
25946;SDS011;13745;51.470;9.894;2023-08-20T04:43:36;22.50;;;17.02;;
25946;SDS011;13745;51.470;9.894;2023-08-20T04:46:22;17.77;;;14.48;;
25946;SDS011;13745;51.470;9.894;2023-08-20T04:49:08;18.00;;;15.65;;
25946;SDS011;13745;51.470;9.894;2023-08-20T04:51:55;23.70;;;17.35;;
25946;SDS011;13745;51.470;9.894;2023-08-20T04:54:40;23.05;;;16.58;;
25946;SDS011;13745;51.470;9.894;2023-08-20T04:57:26;23.88;;;16.58;;
25946;SDS011;13745;51.470;9.894;2023-08-20T05:00:13;23.75;;;18.02;;
25946;SDS011;13745;51.470;9.894;2023-08-20T05:03:13;26.38;;;18.65;;
25946;SDS011;13745;51.470;9.894;2023-08-20T05:06:00;23.00;;;18.15;;
25946;SDS011;13745;51.470;9.894;2023-08-20T05:08:45;20.83;;;16.73;;
25946;SDS011;13745;51.470;9.894;2023-08-20T05:11:31;24.73;;;18.13;;
25946;SDS011;13745;51.470;9.894;2023-08-20T05:14:16;26.83;;;17.98;;
25946;SDS011;13745;51.470;9.894;2023-08-20T05:17:01;25.90;;;19.15;;
25946;SDS011;13745;51.470;9.894;2023-08-20T05:19:47;29.15;;;19.65;;
25946;SDS011;13745;51.470;9.894;2023-08-20T05:22:33;24.25;;;18.58;;
25946;SDS011;13745;51.470;9.894;2023-08-20T05:25:20;25.38;;;18.90;;
25946;SDS011;13745;51.470;9.894;2023-08-20T05:28:07;25.55;;;19.98;;
25946;SDS011;13745;51.470;9.894;2023-08-20T05:30:54;32.65;;;20.30;;
25946;SDS011;13745;51.470;9.894;2023-08-20T05:33:40;39.13;;;20.65;;
25946;SDS011;13745;51.470;9.894;2023-08-20T05:36:25;33.08;;;20.77;;
25946;SDS011;13745;51.470;9.894;2023-08-20T05:39:12;26.88;;;19.50;;
25946;SDS011;13745;51.470;9.894;2023-08-20T05:41:57;28.55;;;21.20;;
25946;SDS011;13745;51.470;9.894;2023-08-20T05:44:44;34.38;;;19.70;;
25946;SDS011;13745;51.470;9.894;2023-08-20T05:47:33;25.10;;;20.50;;
25946;SDS011;13745;51.470;9.894;2023-08-20T05:50:20;29.48;;;20.00;;
25946;SDS011;13745;51.470;9.894;2023-08-20T05:53:05;28.08;;;21.42;;
25946;SDS011;13745;51.470;9.894;2023-08-20T05:55:52;32.65;;;22.23;;
25946;SDS011;13745;51.470;9.894;2023-08-20T05:58:37;29.50;;;20.90;;
25946;SDS011;13745;51.470;9.894;2023-08-20T06:01:22;33.47;;;23.05;;
25946;SDS011;13745;51.470;9.894;2023-08-20T06:04:08;32.78;;;23.45;;
25946;SDS011;13745;51.470;9.894;2023-08-20T06:06:53;30.50;;;23.00;;
25946;SDS011;13745;51.470;9.894;2023-08-20T06:09:38;29.13;;;22.15;;
25946;SDS011;13745;51.470;9.894;2023-08-20T06:12:24;32.30;;;23.15;;
25946;SDS011;13745;51.470;9.894;2023-08-20T06:15:09;34.83;;;22.88;;
25946;SDS011;13745;51.470;9.894;2023-08-20T06:17:54;37.25;;;23.77;;
25946;SDS011;13745;51.470;9.894;2023-08-20T06:20:40;27.95;;;21.98;;
25946;SDS011;13745;51.470;9.894;2023-08-20T06:23:25;34.17;;;23.05;;
25946;SDS011;13745;51.470;9.894;2023-08-20T06:26:11;30.13;;;22.27;;
25946;SDS011;13745;51.470;9.894;2023-08-20T06:28:57;32.72;;;22.40;;
25946;SDS011;13745;51.470;9.894;2023-08-20T06:31:43;31.35;;;22.50;;
25946;SDS011;13745;51.470;9.894;2023-08-20T06:34:28;27.17;;;21.75;;
25946;SDS011;13745;51.470;9.894;2023-08-20T06:37:13;27.77;;;22.02;;
25946;SDS011;13745;51.470;9.894;2023-08-20T06:39:58;30.05;;;22.20;;
25946;SDS011;13745;51.470;9.894;2023-08-20T06:42:43;30.95;;;21.52;;
25946;SDS011;13745;51.470;9.894;2023-08-20T06:45:30;28.25;;;21.42;;
25946;SDS011;13745;51.470;9.894;2023-08-20T06:48:15;26.13;;;21.08;;
25946;SDS011;13745;51.470;9.894;2023-08-20T06:51:07;25.80;;;20.45;;
25946;SDS011;13745;51.470;9.894;2023-08-20T06:53:53;24.92;;;19.20;;
25946;SDS011;13745;51.470;9.894;2023-08-20T06:56:39;37.72;;;20.40;;
25946;SDS011;13745;51.470;9.894;2023-08-20T06:59:24;26.75;;;19.40;;
25946;SDS011;13745;51.470;9.894;2023-08-20T07:02:10;25.98;;;20.38;;
25946;SDS011;13745;51.470;9.894;2023-08-20T07:04:55;21.90;;;18.27;;
25946;SDS011;13745;51.470;9.894;2023-08-20T07:07:41;23.20;;;17.88;;
25946;SDS011;13745;51.470;9.894;2023-08-20T07:10:26;21.60;;;17.52;;
25946;SDS011;13745;51.470;9.894;2023-08-20T07:13:11;21.85;;;17.63;;
25946;SDS011;13745;51.470;9.894;2023-08-20T07:15:57;21.35;;;17.98;;
25946;SDS011;13745;51.470;9.894;2023-08-20T07:18:43;26.10;;;16.67;;
25946;SDS011;13745;51.470;9.894;2023-08-20T07:21:28;22.77;;;17.70;;
25946;SDS011;13745;51.470;9.894;2023-08-20T07:24:14;22.10;;;16.10;;
25946;SDS011;13745;51.470;9.894;2023-08-20T07:26:58;18.10;;;16.15;;
25946;SDS011;13745;51.470;9.894;2023-08-20T07:29:45;19.63;;;16.45;;
25946;SDS011;13745;51.470;9.894;2023-08-20T07:32:30;20.40;;;16.67;;
25946;SDS011;13745;51.470;9.894;2023-08-20T07:35:16;18.98;;;15.77;;
25946;SDS011;13745;51.470;9.894;2023-08-20T07:38:02;17.75;;;13.85;;
25946;SDS011;13745;51.470;9.894;2023-08-20T07:40:47;17.95;;;13.27;;
25946;SDS011;13745;51.470;9.894;2023-08-20T07:43:32;18.38;;;14.20;;
25946;SDS011;13745;51.470;9.894;2023-08-20T07:46:17;19.13;;;14.18;;
25946;SDS011;13745;51.470;9.894;2023-08-20T07:49:02;15.70;;;13.95;;
25946;SDS011;13745;51.470;9.894;2023-08-20T07:51:49;15.15;;;13.32;;
25946;SDS011;13745;51.470;9.894;2023-08-20T07:54:35;15.57;;;13.90;;
25946;SDS011;13745;51.470;9.894;2023-08-20T07:57:20;15.00;;;13.25;;
25946;SDS011;13745;51.470;9.894;2023-08-20T08:00:07;17.20;;;12.82;;
25946;SDS011;13745;51.470;9.894;2023-08-20T08:02:55;18.55;;;12.85;;
25946;SDS011;13745;51.470;9.894;2023-08-20T08:05:40;14.88;;;12.32;;
25946;SDS011;13745;51.470;9.894;2023-08-20T08:08:26;16.02;;;13.15;;
25946;SDS011;13745;51.470;9.894;2023-08-20T08:11:12;14.25;;;12.70;;
25946;SDS011;13745;51.470;9.894;2023-08-20T08:13:56;17.60;;;12.57;;
25946;SDS011;13745;51.470;9.894;2023-08-20T08:16:41;13.45;;;10.27;;
25946;SDS011;13745;51.470;9.894;2023-08-20T08:19:27;15.95;;;10.77;;
25946;SDS011;13745;51.470;9.894;2023-08-20T08:22:11;14.82;;;12.10;;
25946;SDS011;13745;51.470;9.894;2023-08-20T08:24:58;15.43;;;11.75;;
25946;SDS011;13745;51.470;9.894;2023-08-20T08:27:43;14.30;;;11.70;;
25946;SDS011;13745;51.470;9.894;2023-08-20T08:30:29;12.85;;;11.48;;
25946;SDS011;13745;51.470;9.894;2023-08-20T08:33:15;13.38;;;10.45;;
25946;SDS011;13745;51.470;9.894;2023-08-20T08:36:00;13.32;;;11.85;;
25946;SDS011;13745;51.470;9.894;2023-08-20T08:38:45;11.35;;;10.23;;
25946;SDS011;13745;51.470;9.894;2023-08-20T08:41:31;16.35;;;10.13;;
25946;SDS011;13745;51.470;9.894;2023-08-20T08:44:20;11.63;;;9.13;;
25946;SDS011;13745;51.470;9.894;2023-08-20T08:47:06;12.80;;;8.80;;
25946;SDS011;13745;51.470;9.894;2023-08-20T08:49:51;11.75;;;9.73;;
25946;SDS011;13745;51.470;9.894;2023-08-20T08:52:39;9.45;;;8.57;;
25946;SDS011;13745;51.470;9.894;2023-08-20T08:55:26;9.32;;;8.43;;
25946;SDS011;13745;51.470;9.894;2023-08-20T08:58:13;9.20;;;8.05;;
25946;SDS011;13745;51.470;9.894;2023-08-20T09:00:59;9.07;;;8.10;;
25946;SDS011;13745;51.470;9.894;2023-08-20T09:03:45;11.80;;;7.82;;
25946;SDS011;13745;51.470;9.894;2023-08-20T09:06:33;10.48;;;7.85;;
25946;SDS011;13745;51.470;9.894;2023-08-20T09:09:29;8.27;;;7.35;;
25946;SDS011;13745;51.470;9.894;2023-08-20T09:12:15;8.57;;;7.38;;
25946;SDS011;13745;51.470;9.894;2023-08-20T09:15:02;9.13;;;7.93;;
25946;SDS011;13745;51.470;9.894;2023-08-20T09:17:48;10.20;;;7.18;;
25946;SDS011;13745;51.470;9.894;2023-08-20T09:20:34;9.73;;;6.93;;
25946;SDS011;13745;51.470;9.894;2023-08-20T09:23:19;8.20;;;7.38;;
25946;SDS011;13745;51.470;9.894;2023-08-20T09:26:05;6.63;;;6.00;;
25946;SDS011;13745;51.470;9.894;2023-08-20T09:28:53;6.93;;;6.18;;
25946;SDS011;13745;51.470;9.894;2023-08-20T09:31:41;9.63;;;6.78;;
25946;SDS011;13745;51.470;9.894;2023-08-20T09:34:38;7.25;;;6.55;;
25946;SDS011;13745;51.470;9.894;2023-08-20T09:37:24;8.02;;;6.32;;
25946;SDS011;13745;51.470;9.894;2023-08-20T09:40:09;7.93;;;6.68;;
25946;SDS011;13745;51.470;9.894;2023-08-20T09:42:56;6.88;;;6.28;;
25946;SDS011;13745;51.470;9.894;2023-08-20T09:45:41;10.35;;;6.60;;
25946;SDS011;13745;51.470;9.894;2023-08-20T09:48:28;6.43;;;5.78;;
25946;SDS011;13745;51.470;9.894;2023-08-20T09:51:19;5.70;;;5.18;;
25946;SDS011;13745;51.470;9.894;2023-08-20T09:54:11;6.45;;;5.78;;
25946;SDS011;13745;51.470;9.894;2023-08-20T09:57:00;6.43;;;5.85;;
25946;SDS011;13745;51.470;9.894;2023-08-20T09:59:46;5.95;;;5.45;;
25946;SDS011;13745;51.470;9.894;2023-08-20T10:02:33;7.38;;;5.30;;
25946;SDS011;13745;51.470;9.894;2023-08-20T10:05:21;7.95;;;5.32;;
25946;SDS011;13745;51.470;9.894;2023-08-20T10:08:08;7.65;;;5.75;;
25946;SDS011;13745;51.470;9.894;2023-08-20T10:10:54;5.18;;;4.78;;
25946;SDS011;13745;51.470;9.894;2023-08-20T10:13:39;6.47;;;5.78;;
25946;SDS011;13745;51.470;9.894;2023-08-20T10:16:26;6.65;;;5.30;;
25946;SDS011;13745;51.470;9.894;2023-08-20T10:19:13;6.65;;;6.05;;
25946;SDS011;13745;51.470;9.894;2023-08-20T10:22:02;8.20;;;6.68;;
25946;SDS011;13745;51.470;9.894;2023-08-20T10:24:48;6.30;;;5.70;;
25946;SDS011;13745;51.470;9.894;2023-08-20T10:27:35;6.57;;;6.07;;
25946;SDS011;13745;51.470;9.894;2023-08-20T10:30:24;7.15;;;6.45;;
25946;SDS011;13745;51.470;9.894;2023-08-20T10:33:10;8.68;;;6.22;;
25946;SDS011;13745;51.470;9.894;2023-08-20T10:35:58;6.75;;;6.15;;
25946;SDS011;13745;51.470;9.894;2023-08-20T10:38:53;6.75;;;6.10;;
25946;SDS011;13745;51.470;9.894;2023-08-20T10:41:39;7.15;;;5.97;;
25946;SDS011;13745;51.470;9.894;2023-08-20T10:44:24;7.57;;;6.10;;
25946;SDS011;13745;51.470;9.894;2023-08-20T10:47:09;7.03;;;6.43;;
25946;SDS011;13745;51.470;9.894;2023-08-20T10:49:54;6.55;;;5.85;;
25946;SDS011;13745;51.470;9.894;2023-08-20T10:52:39;6.97;;;6.38;;
25946;SDS011;13745;51.470;9.894;2023-08-20T10:55:29;12.68;;;6.40;;
25946;SDS011;13745;51.470;9.894;2023-08-20T10:58:14;7.10;;;6.30;;
25946;SDS011;13745;51.470;9.894;2023-08-20T11:01:12;7.72;;;7.00;;
25946;SDS011;13745;51.470;9.894;2023-08-20T11:03:59;9.77;;;6.70;;
25946;SDS011;13745;51.470;9.894;2023-08-20T11:06:49;7.07;;;6.38;;
25946;SDS011;13745;51.470;9.894;2023-08-20T11:09:37;7.22;;;6.53;;
25946;SDS011;13745;51.470;9.894;2023-08-20T11:12:25;9.30;;;6.95;;
25946;SDS011;13745;51.470;9.894;2023-08-20T11:15:10;7.70;;;6.90;;
25946;SDS011;13745;51.470;9.894;2023-08-20T11:17:56;11.93;;;6.88;;
25946;SDS011;13745;51.470;9.894;2023-08-20T11:20:41;7.40;;;6.72;;
25946;SDS011;13745;51.470;9.894;2023-08-20T11:23:27;7.45;;;6.75;;
25946;SDS011;13745;51.470;9.894;2023-08-20T11:26:13;8.27;;;6.75;;
25946;SDS011;13745;51.470;9.894;2023-08-20T11:28:59;6.78;;;6.20;;
25946;SDS011;13745;51.470;9.894;2023-08-20T11:31:45;8.48;;;6.53;;
25946;SDS011;13745;51.470;9.894;2023-08-20T11:34:31;6.72;;;6.13;;
25946;SDS011;13745;51.470;9.894;2023-08-20T11:37:17;8.00;;;6.55;;
25946;SDS011;13745;51.470;9.894;2023-08-20T11:40:03;7.65;;;6.40;;
25946;SDS011;13745;51.470;9.894;2023-08-20T11:42:52;6.72;;;6.13;;
25946;SDS011;13745;51.470;9.894;2023-08-20T11:45:45;6.82;;;6.22;;
25946;SDS011;13745;51.470;9.894;2023-08-20T11:48:31;7.03;;;6.35;;
25946;SDS011;13745;51.470;9.894;2023-08-20T11:51:20;8.43;;;6.45;;
25946;SDS011;13745;51.470;9.894;2023-08-20T11:54:06;10.10;;;5.65;;
25946;SDS011;13745;51.470;9.894;2023-08-20T11:57:01;5.75;;;5.25;;
25946;SDS011;13745;51.470;9.894;2023-08-20T11:59:47;5.25;;;4.75;;
25946;SDS011;13745;51.470;9.894;2023-08-20T12:02:34;6.85;;;4.80;;
25946;SDS011;13745;51.470;9.894;2023-08-20T12:05:19;5.40;;;4.85;;
25946;SDS011;13745;51.470;9.894;2023-08-20T12:08:05;6.43;;;4.90;;
25946;SDS011;13745;51.470;9.894;2023-08-20T12:10:50;5.53;;;5.03;;
25946;SDS011;13745;51.470;9.894;2023-08-20T12:13:35;9.48;;;5.63;;
25946;SDS011;13745;51.470;9.894;2023-08-20T12:16:21;7.40;;;5.13;;
25946;SDS011;13745;51.470;9.894;2023-08-20T12:19:08;8.48;;;5.40;;
25946;SDS011;13745;51.470;9.894;2023-08-20T12:21:54;5.78;;;5.22;;
25946;SDS011;13745;51.470;9.894;2023-08-20T12:24:39;5.50;;;5.00;;
25946;SDS011;13745;51.470;9.894;2023-08-20T12:27:24;5.20;;;4.70;;
25946;SDS011;13745;51.470;9.894;2023-08-20T12:30:11;5.75;;;5.15;;
25946;SDS011;13745;51.470;9.894;2023-08-20T12:32:57;5.10;;;4.68;;
25946;SDS011;13745;51.470;9.894;2023-08-20T12:35:43;7.22;;;4.75;;
25946;SDS011;13745;51.470;9.894;2023-08-20T12:38:29;6.47;;;5.65;;
25946;SDS011;13745;51.470;9.894;2023-08-20T12:41:18;5.93;;;5.43;;
25946;SDS011;13745;51.470;9.894;2023-08-20T12:44:04;5.63;;;5.18;;
25946;SDS011;13745;51.470;9.894;2023-08-20T12:46:50;6.80;;;4.60;;
25946;SDS011;13745;51.470;9.894;2023-08-20T12:49:35;7.47;;;5.00;;
25946;SDS011;13745;51.470;9.894;2023-08-20T12:52:21;6.70;;;5.70;;
25946;SDS011;13745;51.470;9.894;2023-08-20T12:55:06;6.05;;;5.40;;
25946;SDS011;13745;51.470;9.894;2023-08-20T12:57:53;6.32;;;5.13;;
25946;SDS011;13745;51.470;9.894;2023-08-20T13:00:39;7.50;;;5.20;;
25946;SDS011;13745;51.470;9.894;2023-08-20T13:03:25;6.13;;;5.53;;
25946;SDS011;13745;51.470;9.894;2023-08-20T13:06:12;5.75;;;5.05;;
25946;SDS011;13745;51.470;9.894;2023-08-20T13:08:59;5.43;;;4.93;;
25946;SDS011;13745;51.470;9.894;2023-08-20T13:11:44;5.65;;;4.80;;
25946;SDS011;13745;51.470;9.894;2023-08-20T13:14:32;5.40;;;4.82;;
25946;SDS011;13745;51.470;9.894;2023-08-20T13:17:17;6.38;;;5.78;;
25946;SDS011;13745;51.470;9.894;2023-08-20T13:20:03;7.68;;;4.78;;
25946;SDS011;13745;51.470;9.894;2023-08-20T13:22:51;7.05;;;4.63;;
25946;SDS011;13745;51.470;9.894;2023-08-20T13:25:38;6.80;;;5.00;;
25946;SDS011;13745;51.470;9.894;2023-08-20T13:28:24;6.15;;;5.65;;
25946;SDS011;13745;51.470;9.894;2023-08-20T13:31:11;5.10;;;4.70;;
25946;SDS011;13745;51.470;9.894;2023-08-20T13:33:57;5.65;;;5.15;;
25946;SDS011;13745;51.470;9.894;2023-08-20T13:36:42;6.53;;;5.18;;
25946;SDS011;13745;51.470;9.894;2023-08-20T13:39:27;7.20;;;4.85;;
25946;SDS011;13745;51.470;9.894;2023-08-20T13:42:14;6.95;;;5.03;;
25946;SDS011;13745;51.470;9.894;2023-08-20T13:44:59;5.13;;;4.50;;
25946;SDS011;13745;51.470;9.894;2023-08-20T13:47:45;8.82;;;5.20;;
25946;SDS011;13745;51.470;9.894;2023-08-20T13:50:30;5.30;;;4.80;;
25946;SDS011;13745;51.470;9.894;2023-08-20T13:53:15;6.72;;;4.63;;
25946;SDS011;13745;51.470;9.894;2023-08-20T13:56:00;4.82;;;4.35;;
25946;SDS011;13745;51.470;9.894;2023-08-20T13:58:47;7.80;;;4.78;;
25946;SDS011;13745;51.470;9.894;2023-08-20T14:01:32;11.65;;;4.50;;
25946;SDS011;13745;51.470;9.894;2023-08-20T14:04:17;6.25;;;4.20;;
25946;SDS011;13745;51.470;9.894;2023-08-20T14:07:02;5.47;;;4.05;;
25946;SDS011;13745;51.470;9.894;2023-08-20T14:09:48;4.50;;;4.10;;
25946;SDS011;13745;51.470;9.894;2023-08-20T14:12:33;5.15;;;4.68;;
25946;SDS011;13745;51.470;9.894;2023-08-20T14:15:19;5.53;;;4.13;;
25946;SDS011;13745;51.470;9.894;2023-08-20T14:18:05;7.78;;;5.03;;
25946;SDS011;13745;51.470;9.894;2023-08-20T14:20:50;8.55;;;4.60;;
25946;SDS011;13745;51.470;9.894;2023-08-20T14:23:35;5.03;;;4.60;;
25946;SDS011;13745;51.470;9.894;2023-08-20T14:26:20;6.25;;;4.57;;
25946;SDS011;13745;51.470;9.894;2023-08-20T14:29:06;7.25;;;5.32;;
25946;SDS011;13745;51.470;9.894;2023-08-20T14:31:52;4.93;;;4.43;;
25946;SDS011;13745;51.470;9.894;2023-08-20T14:34:37;6.13;;;4.63;;
25946;SDS011;13745;51.470;9.894;2023-08-20T14:37:22;5.15;;;4.75;;
25946;SDS011;13745;51.470;9.894;2023-08-20T14:40:08;4.97;;;4.50;;
25946;SDS011;13745;51.470;9.894;2023-08-20T14:42:55;5.80;;;5.05;;
25946;SDS011;13745;51.470;9.894;2023-08-20T14:45:40;5.25;;;4.80;;
25946;SDS011;13745;51.470;9.894;2023-08-20T14:48:26;8.25;;;4.60;;
25946;SDS011;13745;51.470;9.894;2023-08-20T14:51:11;5.22;;;4.72;;
25946;SDS011;13745;51.470;9.894;2023-08-20T14:53:57;6.00;;;4.70;;
25946;SDS011;13745;51.470;9.894;2023-08-20T14:56:42;10.80;;;4.90;;
25946;SDS011;13745;51.470;9.894;2023-08-20T14:59:28;6.00;;;4.95;;
25946;SDS011;13745;51.470;9.894;2023-08-20T15:02:13;5.57;;;5.07;;
25946;SDS011;13745;51.470;9.894;2023-08-20T15:04:59;7.57;;;5.55;;
25946;SDS011;13745;51.470;9.894;2023-08-20T15:07:45;6.53;;;4.95;;
25946;SDS011;13745;51.470;9.894;2023-08-20T15:10:30;5.07;;;4.68;;
25946;SDS011;13745;51.470;9.894;2023-08-20T15:13:15;6.45;;;4.57;;
25946;SDS011;13745;51.470;9.894;2023-08-20T15:16:00;5.30;;;4.80;;
25946;SDS011;13745;51.470;9.894;2023-08-20T15:18:46;5.80;;;5.30;;
25946;SDS011;13745;51.470;9.894;2023-08-20T15:21:32;5.55;;;4.93;;
25946;SDS011;13745;51.470;9.894;2023-08-20T15:24:17;4.70;;;4.03;;
25946;SDS011;13745;51.470;9.894;2023-08-20T15:27:03;5.20;;;4.80;;
25946;SDS011;13745;51.470;9.894;2023-08-20T15:29:48;5.43;;;4.93;;
25946;SDS011;13745;51.470;9.894;2023-08-20T15:32:33;7.28;;;4.68;;
25946;SDS011;13745;51.470;9.894;2023-08-20T15:35:19;5.80;;;4.43;;
25946;SDS011;13745;51.470;9.894;2023-08-20T15:38:05;5.38;;;4.97;;
25946;SDS011;13745;51.470;9.894;2023-08-20T15:40:50;8.02;;;4.97;;
25946;SDS011;13745;51.470;9.894;2023-08-20T15:43:36;7.03;;;4.75;;
25946;SDS011;13745;51.470;9.894;2023-08-20T15:46:21;5.15;;;4.70;;
25946;SDS011;13745;51.470;9.894;2023-08-20T15:49:07;6.68;;;4.60;;
25946;SDS011;13745;51.470;9.894;2023-08-20T15:51:52;5.45;;;4.82;;
25946;SDS011;13745;51.470;9.894;2023-08-20T15:54:38;5.25;;;4.65;;
25946;SDS011;13745;51.470;9.894;2023-08-20T15:57:25;11.43;;;4.72;;
25946;SDS011;13745;51.470;9.894;2023-08-20T16:00:10;9.45;;;4.60;;
25946;SDS011;13745;51.470;9.894;2023-08-20T16:02:58;5.40;;;4.90;;
25946;SDS011;13745;51.470;9.894;2023-08-20T16:05:44;8.18;;;4.63;;
25946;SDS011;13745;51.470;9.894;2023-08-20T16:08:29;7.68;;;4.80;;
25946;SDS011;13745;51.470;9.894;2023-08-20T16:11:16;6.63;;;4.43;;
25946;SDS011;13745;51.470;9.894;2023-08-20T16:14:01;5.55;;;5.00;;
25946;SDS011;13745;51.470;9.894;2023-08-20T16:16:46;4.65;;;4.22;;
25946;SDS011;13745;51.470;9.894;2023-08-20T16:19:31;4.50;;;4.10;;
25946;SDS011;13745;51.470;9.894;2023-08-20T16:22:16;9.20;;;4.97;;
25946;SDS011;13745;51.470;9.894;2023-08-20T16:25:02;6.53;;;5.05;;
25946;SDS011;13745;51.470;9.894;2023-08-20T16:27:50;4.35;;;3.95;;